DAL1070 KDTW-KDCA
Flight info
| Callsign | DAL1070 |
|---|---|
| Flight time | N/A |
| Altitude | 33000 |
| Route | LIDDS3 GRIVY BUCKO FRDMM6 |
| Aircraft | A320/M-SDE3FGHIRWY/LB1 |
Departure
| Time | 2026-05-04 00:29 |
|---|---|
| Airport | Detroit Metropolitan Wayne County Airport (KDTW) |
Arrival
| Time | N/A |
|---|---|
| Airport | Ronald Reagan Washington National Airport (KDCA) |
| Time | Latitude | Longitude | Altitude | Speed | Heading |
|---|---|---|---|---|---|
| 2026-05-04 00:04 | 42.21365 | -83.35474 | 646 ft | 0 kts | 119° |
| 2026-05-04 00:19 | 42.21372 | -83.35491 | 646 ft | 4 kts | 116° |
| 2026-05-04 00:19 | 42.21383 | -83.35524 | 649 ft | 4 kts | 108° |
| 2026-05-04 00:20 | 42.21389 | -83.35559 | 649 ft | 4 kts | 91° |
| 2026-05-04 00:20 | 42.21384 | -83.35590 | 649 ft | 4 kts | 39° |
| 2026-05-04 00:20 | 42.21376 | -83.35597 | 648 ft | 1 kts | 28° |
| 2026-05-04 00:22 | 42.21381 | -83.35593 | 647 ft | 3 kts | 28° |
| 2026-05-04 00:22 | 42.21425 | -83.35562 | 646 ft | 11 kts | 28° |
| 2026-05-04 00:23 | 42.21498 | -83.35508 | 648 ft | 11 kts | 28° |
| 2026-05-04 00:23 | 42.21543 | -83.35426 | 646 ft | 12 kts | 74° |
| 2026-05-04 00:23 | 42.21551 | -83.35317 | 646 ft | 11 kts | 90° |
| 2026-05-04 00:23 | 42.21551 | -83.35224 | 646 ft | 9 kts | 90° |
| 2026-05-04 00:24 | 42.21551 | -83.35139 | 646 ft | 9 kts | 88° |
| 2026-05-04 00:24 | 42.21573 | -83.35062 | 646 ft | 10 kts | 47° |
| 2026-05-04 00:24 | 42.21626 | -83.34994 | 648 ft | 11 kts | 43° |
| 2026-05-04 00:24 | 42.21682 | -83.34924 | 647 ft | 12 kts | 43° |
| 2026-05-04 00:25 | 42.21744 | -83.34846 | 647 ft | 13 kts | 43° |
| 2026-05-04 00:25 | 42.21818 | -83.34753 | 647 ft | 16 kts | 47° |
| 2026-05-04 00:25 | 42.21839 | -83.34623 | 647 ft | 13 kts | 91° |
| 2026-05-04 00:25 | 42.21860 | -83.34502 | 648 ft | 15 kts | 45° |
| 2026-05-04 00:26 | 42.21957 | -83.34430 | 646 ft | 16 kts | 28° |
| 2026-05-04 00:26 | 42.22052 | -83.34360 | 646 ft | 15 kts | 28° |
| 2026-05-04 00:26 | 42.22143 | -83.34292 | 646 ft | 17 kts | 29° |
| 2026-05-04 00:26 | 42.22267 | -83.34199 | 646 ft | 24 kts | 29° |
| 2026-05-04 00:27 | 42.22412 | -83.34092 | 646 ft | 23 kts | 29° |
| 2026-05-04 00:27 | 42.22545 | -83.33993 | 646 ft | 21 kts | 28° |
| 2026-05-04 00:27 | 42.22667 | -83.33905 | 648 ft | 19 kts | 28° |
| 2026-05-04 00:27 | 42.22750 | -83.33800 | 646 ft | 16 kts | 91° |
| 2026-05-04 00:28 | 42.22690 | -83.33722 | 647 ft | 12 kts | 190° |
| 2026-05-04 00:28 | 42.22612 | -83.33773 | 647 ft | 15 kts | 209° |
| 2026-05-04 00:28 | 42.22319 | -83.33993 | 648 ft | 90 kts | 208° |
| 2026-05-04 00:28 | 42.21573 | -83.34557 | 694 ft | 152 kts | 214° |
| 2026-05-04 00:29 | 42.20584 | -83.35153 | 1389 ft | 158 kts | 207° |
| 2026-05-04 00:29 | 42.19539 | -83.35733 | 2258 ft | 165 kts | 207° |
| 2026-05-04 00:29 | 42.18434 | -83.36293 | 3112 ft | 181 kts | 200° |
| 2026-05-04 00:29 | 42.17094 | -83.36550 | 3835 ft | 208 kts | 188° |
| 2026-05-04 00:30 | 42.15574 | -83.36421 | 4686 ft | 222 kts | 180° |
| 2026-05-04 00:30 | 42.13982 | -83.36194 | 5065 ft | 244 kts | 182° |
| 2026-05-04 00:30 | 42.12226 | -83.36032 | 5593 ft | 260 kts | 183° |
| 2026-05-04 00:30 | 42.10393 | -83.35894 | 6366 ft | 267 kts | 183° |
| 2026-05-04 00:31 | 42.08511 | -83.35765 | 6855 ft | 273 kts | 183° |
| 2026-05-04 00:31 | 42.06603 | -83.35640 | 7004 ft | 275 kts | 183° |
| 2026-05-04 00:31 | 42.04722 | -83.35120 | 7023 ft | 285 kts | 158° |
| 2026-05-04 00:31 | 42.03247 | -83.33309 | 7030 ft | 296 kts | 124° |
| 2026-05-04 00:32 | 42.02451 | -83.30728 | 7027 ft | 302 kts | 106° |
| 2026-05-04 00:32 | 42.02051 | -83.27952 | 7017 ft | 303 kts | 99° |
| 2026-05-04 00:32 | 42.01803 | -83.25138 | 7014 ft | 304 kts | 97° |
| 2026-05-04 00:32 | 42.01652 | -83.23262 | 7033 ft | 305 kts | 97° |
| 2026-05-04 00:33 | 42.01398 | -83.20422 | 7767 ft | 307 kts | 96° |
| 2026-05-04 00:33 | 42.01871 | -83.14706 | 9462 ft | 312 kts | 77° |
| 2026-05-04 00:33 | 42.02286 | -83.11827 | 10224 ft | 318 kts | 78° |
| 2026-05-04 00:34 | 42.02341 | -83.08759 | 10440 ft | 342 kts | 101° |
| 2026-05-04 00:34 | 42.01439 | -83.05712 | 10630 ft | 362 kts | 127° |
| 2026-05-04 00:34 | 41.99681 | -83.03180 | 10769 ft | 381 kts | 140° |
| 2026-05-04 00:34 | 41.97697 | -83.00692 | 11056 ft | 396 kts | 140° |
| 2026-05-04 00:35 | 41.95652 | -82.98159 | 11618 ft | 402 kts | 140° |
| 2026-05-04 00:35 | 41.93589 | -82.95602 | 12270 ft | 406 kts | 140° |
| 2026-05-04 00:35 | 41.91508 | -82.93015 | 12907 ft | 410 kts | 140° |
| 2026-05-04 00:35 | 41.89414 | -82.90405 | 13582 ft | 413 kts | 139° |
| 2026-05-04 00:36 | 41.87304 | -82.87769 | 14150 ft | 417 kts | 139° |
| 2026-05-04 00:36 | 41.85170 | -82.85102 | 14694 ft | 421 kts | 139° |
| 2026-05-04 00:36 | 41.83018 | -82.82412 | 15245 ft | 425 kts | 139° |
| 2026-05-04 00:36 | 41.80843 | -82.79697 | 15786 ft | 429 kts | 139° |
| 2026-05-04 00:37 | 41.78651 | -82.76962 | 16336 ft | 432 kts | 139° |
| 2026-05-04 00:37 | 41.76442 | -82.74210 | 16871 ft | 436 kts | 139° |
| 2026-05-04 00:37 | 41.74236 | -82.71473 | 17364 ft | 440 kts | 139° |
| 2026-05-04 00:37 | 41.71980 | -82.68676 | 17865 ft | 444 kts | 139° |
| 2026-05-04 00:38 | 41.69700 | -82.65849 | 18335 ft | 448 kts | 139° |
| 2026-05-04 00:38 | 41.67410 | -82.63008 | 18760 ft | 451 kts | 139° |
| 2026-05-04 00:38 | 41.65105 | -82.60152 | 19188 ft | 453 kts | 139° |
| 2026-05-04 00:38 | 41.62785 | -82.57278 | 19609 ft | 456 kts | 139° |
| 2026-05-04 00:39 | 41.60451 | -82.54389 | 20028 ft | 458 kts | 139° |
| 2026-05-04 00:39 | 41.58104 | -82.51489 | 20430 ft | 461 kts | 139° |
| 2026-05-04 00:39 | 41.55742 | -82.48576 | 20820 ft | 463 kts | 139° |
| 2026-05-04 00:39 | 41.53369 | -82.45652 | 21196 ft | 465 kts | 139° |
| 2026-05-04 00:40 | 41.50986 | -82.42717 | 21544 ft | 468 kts | 139° |
| 2026-05-04 00:40 | 41.48584 | -82.39762 | 21908 ft | 470 kts | 139° |
| 2026-05-04 00:40 | 41.46171 | -82.36798 | 22268 ft | 472 kts | 139° |
| 2026-05-04 00:40 | 41.43750 | -82.33825 | 22608 ft | 474 kts | 139° |
| 2026-05-04 00:41 | 41.41317 | -82.30844 | 22946 ft | 477 kts | 139° |
| 2026-05-04 00:41 | 41.38898 | -82.27886 | 23258 ft | 479 kts | 139° |
| 2026-05-04 00:41 | 41.36434 | -82.24875 | 23573 ft | 481 kts | 139° |
| 2026-05-04 00:41 | 41.33966 | -82.21858 | 23834 ft | 483 kts | 139° |
| 2026-05-04 00:42 | 41.31486 | -82.18827 | 24090 ft | 485 kts | 139° |
| 2026-05-04 00:42 | 41.28996 | -82.15787 | 24321 ft | 487 kts | 140° |
| 2026-05-04 00:42 | 41.26486 | -82.12732 | 24526 ft | 490 kts | 140° |
| 2026-05-04 00:42 | 41.23960 | -82.09667 | 24755 ft | 492 kts | 140° |
| 2026-05-04 00:43 | 41.21431 | -82.06597 | 24986 ft | 494 kts | 140° |
| 2026-05-04 00:43 | 41.18891 | -82.03516 | 25213 ft | 495 kts | 140° |
| 2026-05-04 00:43 | 41.16341 | -82.00427 | 25431 ft | 497 kts | 140° |
| 2026-05-04 00:43 | 41.13786 | -81.97332 | 25642 ft | 499 kts | 140° |
| 2026-05-04 00:44 | 41.11221 | -81.94225 | 25845 ft | 500 kts | 140° |
| 2026-05-04 00:44 | 41.08647 | -81.91113 | 26021 ft | 501 kts | 140° |
| 2026-05-04 00:44 | 41.06067 | -81.87998 | 26166 ft | 502 kts | 140° |
| 2026-05-04 00:44 | 41.03475 | -81.84872 | 26299 ft | 505 kts | 141° |
| 2026-05-04 00:45 | 41.00871 | -81.81735 | 26425 ft | 507 kts | 141° |
| 2026-05-04 00:45 | 40.98252 | -81.78584 | 26554 ft | 509 kts | 141° |
| 2026-05-04 00:45 | 40.95632 | -81.75434 | 26685 ft | 510 kts | 141° |
| 2026-05-04 00:45 | 40.93008 | -81.72285 | 26817 ft | 510 kts | 141° |
| 2026-05-04 00:46 | 40.90372 | -81.69124 | 26952 ft | 511 kts | 141° |
| 2026-05-04 00:46 | 40.87737 | -81.65969 | 27091 ft | 511 kts | 141° |
| 2026-05-04 00:46 | 40.85106 | -81.62820 | 27262 ft | 511 kts | 141° |
| 2026-05-04 00:46 | 40.82469 | -81.59668 | 27401 ft | 511 kts | 141° |
| 2026-05-04 00:47 | 40.79826 | -81.56514 | 27546 ft | 512 kts | 142° |
| 2026-05-04 00:47 | 40.77184 | -81.53364 | 27696 ft | 513 kts | 142° |
| 2026-05-04 00:47 | 40.74534 | -81.50211 | 27838 ft | 513 kts | 142° |
| 2026-05-04 00:47 | 40.71883 | -81.47059 | 28003 ft | 513 kts | 142° |
| 2026-05-04 00:48 | 40.69234 | -81.43907 | 28167 ft | 513 kts | 142° |
| 2026-05-04 00:48 | 40.66584 | -81.40759 | 28357 ft | 513 kts | 142° |
| 2026-05-04 00:48 | 40.63934 | -81.37616 | 28541 ft | 513 kts | 142° |
| 2026-05-04 00:48 | 40.61324 | -81.34523 | 28722 ft | 512 kts | 142° |
| 2026-05-04 00:49 | 40.58674 | -81.31385 | 28912 ft | 512 kts | 142° |
| 2026-05-04 00:49 | 40.56022 | -81.28249 | 29054 ft | 513 kts | 142° |
| 2026-05-04 00:49 | 40.53368 | -81.25119 | 29212 ft | 513 kts | 143° |
| 2026-05-04 00:49 | 40.50713 | -81.21990 | 29408 ft | 513 kts | 143° |
| 2026-05-04 00:50 | 40.48055 | -81.18856 | 29599 ft | 513 kts | 143° |
| 2026-05-04 00:50 | 40.45399 | -81.15734 | 29789 ft | 513 kts | 143° |
| 2026-05-04 00:50 | 40.42741 | -81.12616 | 29992 ft | 512 kts | 143° |
| 2026-05-04 00:50 | 40.40087 | -81.09507 | 30175 ft | 512 kts | 143° |
| 2026-05-04 00:51 | 40.37431 | -81.06395 | 30329 ft | 512 kts | 143° |
| 2026-05-04 00:51 | 40.34776 | -81.03287 | 30479 ft | 511 kts | 143° |
| 2026-05-04 00:51 | 40.32124 | -81.00180 | 30651 ft | 511 kts | 143° |
| 2026-05-04 00:51 | 40.29473 | -80.97077 | 30805 ft | 511 kts | 143° |
| 2026-05-04 00:52 | 40.26820 | -80.93972 | 30965 ft | 511 kts | 143° |
| 2026-05-04 00:52 | 40.24169 | -80.90875 | 31130 ft | 511 kts | 143° |
| 2026-05-04 00:52 | 40.21516 | -80.87783 | 31297 ft | 510 kts | 143° |
| 2026-05-04 00:52 | 40.18865 | -80.84699 | 31464 ft | 510 kts | 143° |
| 2026-05-04 00:53 | 40.16213 | -80.81621 | 31628 ft | 510 kts | 143° |
| 2026-05-04 00:53 | 40.13560 | -80.78544 | 31801 ft | 510 kts | 143° |
| 2026-05-04 00:53 | 40.10909 | -80.75471 | 31970 ft | 510 kts | 143° |
| 2026-05-04 00:53 | 40.08250 | -80.72398 | 32085 ft | 510 kts | 143° |
| 2026-05-04 00:54 | 40.05592 | -80.69333 | 32269 ft | 510 kts | 143° |
| 2026-05-04 00:54 | 40.02932 | -80.66264 | 32411 ft | 510 kts | 143° |
| 2026-05-04 00:54 | 40.00273 | -80.63189 | 32577 ft | 511 kts | 143° |
| 2026-05-04 00:54 | 39.97613 | -80.60110 | 32752 ft | 510 kts | 143° |
| 2026-05-04 00:55 | 39.94960 | -80.57043 | 32935 ft | 510 kts | 143° |
| 2026-05-04 00:55 | 39.92298 | -80.53976 | 33037 ft | 510 kts | 143° |
| 2026-05-04 00:55 | 39.89643 | -80.50918 | 33044 ft | 510 kts | 143° |
| 2026-05-04 00:56 | 39.84316 | -80.44802 | 33044 ft | 510 kts | 144° |
| 2026-05-04 00:56 | 39.78984 | -80.38711 | 33049 ft | 510 kts | 144° |
| 2026-05-04 00:57 | 39.73691 | -80.32658 | 33050 ft | 510 kts | 144° |
| 2026-05-04 00:57 | 39.68323 | -80.26531 | 33054 ft | 510 kts | 144° |
| 2026-05-04 00:58 | 39.63042 | -80.20452 | 33050 ft | 510 kts | 143° |
| 2026-05-04 00:58 | 39.57708 | -80.14363 | 33017 ft | 510 kts | 144° |
| 2026-05-04 00:59 | 39.52348 | -80.08353 | 33027 ft | 510 kts | 144° |
| 2026-05-04 00:59 | 39.46982 | -80.02329 | 33036 ft | 511 kts | 144° |
| 2026-05-04 01:00 | 39.41621 | -79.96290 | 33053 ft | 511 kts | 144° |
| 2026-05-04 01:00 | 39.36263 | -79.90226 | 32989 ft | 513 kts | 143° |
| 2026-05-04 01:01 | 39.31724 | -79.82969 | 33073 ft | 528 kts | 124° |
| 2026-05-04 01:01 | 39.28943 | -79.74148 | 33079 ft | 535 kts | 104° |
| 2026-05-04 01:02 | 39.27976 | -79.64640 | 32658 ft | 533 kts | 95° |
| 2026-05-04 01:02 | 39.27610 | -79.59876 | 31635 ft | 532 kts | 95° |
| 2026-05-04 01:02 | 39.27232 | -79.55118 | 31272 ft | 533 kts | 96° |
| 2026-05-04 01:02 | 39.26846 | -79.50378 | 31042 ft | 531 kts | 96° |
| 2026-05-04 01:03 | 39.26457 | -79.45681 | 31097 ft | 523 kts | 96° |
| 2026-05-04 01:03 | 39.25686 | -79.36474 | 31079 ft | 514 kts | 96° |
| 2026-05-04 01:04 | 39.24937 | -79.27275 | 30870 ft | 515 kts | 96° |
| 2026-05-04 01:04 | 39.23863 | -79.14566 | 29010 ft | 506 kts | 96° |
| 2026-05-04 01:05 | 39.23480 | -79.10073 | 28400 ft | 499 kts | 96° |
| 2026-05-04 01:05 | 39.23104 | -79.05663 | 27468 ft | 491 kts | 96° |
| 2026-05-04 01:05 | 39.22730 | -79.01321 | 26576 ft | 484 kts | 96° |
| 2026-05-04 01:05 | 39.22357 | -78.97033 | 25724 ft | 476 kts | 96° |
| 2026-05-04 01:06 | 39.21981 | -78.92819 | 24891 ft | 470 kts | 96° |
| 2026-05-04 01:06 | 39.21595 | -78.88672 | 24321 ft | 461 kts | 97° |
| 2026-05-04 01:06 | 39.21201 | -78.84583 | 24109 ft | 459 kts | 97° |
| 2026-05-04 01:06 | 39.20803 | -78.80562 | 24028 ft | 457 kts | 97° |